createdAt,value
2018-11-04T00:00:20.758Z,14.10
2018-11-04T00:02:49.525Z,12.70
2018-11-04T00:05:18.195Z,12.73
2018-11-04T00:07:47.819Z,13.17
2018-11-04T00:10:16.217Z,13.27
2018-11-04T00:12:44.584Z,12.40
2018-11-04T00:15:13.009Z,14.00
2018-11-04T00:17:41.529Z,13.40
2018-11-04T00:20:12.051Z,13.67
2018-11-04T00:22:40.497Z,14.40
2018-11-04T00:25:10.776Z,15.03
2018-11-04T00:27:39.150Z,13.13
2018-11-04T00:30:09.660Z,13.57
2018-11-04T00:32:38.069Z,13.80
2018-11-04T00:35:06.844Z,13.97
2018-11-04T00:37:35.232Z,14.60
2018-11-04T00:40:03.734Z,14.73
2018-11-04T00:42:32.089Z,14.27
2018-11-04T00:45:00.518Z,14.03
2018-11-04T00:47:29.204Z,14.90
2018-11-04T00:49:57.656Z,15.30
2018-11-04T00:52:26.000Z,15.00
2018-11-04T00:54:54.452Z,15.20
2018-11-04T00:57:22.806Z,14.93
2018-11-04T00:59:51.129Z,15.40
2018-11-04T01:02:19.555Z,16.63
2018-11-04T01:04:47.931Z,16.20
2018-11-04T01:07:16.300Z,15.60
2018-11-04T01:09:44.739Z,15.17
2018-11-04T01:12:13.112Z,14.17
2018-11-04T01:14:41.611Z,15.47
2018-11-04T01:17:09.987Z,14.80
2018-11-04T01:19:38.303Z,15.70
2018-11-04T01:22:06.751Z,16.10
2018-11-04T01:24:35.170Z,15.83
2018-11-04T01:27:03.483Z,16.10
2018-11-04T01:29:31.817Z,15.97
2018-11-04T01:32:00.139Z,16.80
2018-11-04T01:34:28.528Z,17.10
2018-11-04T01:36:56.854Z,17.67
2018-11-04T01:39:25.256Z,16.37
2018-11-04T01:41:53.652Z,17.33
2018-11-04T01:44:22.156Z,19.00
2018-11-04T01:46:50.627Z,19.10
2018-11-04T01:49:19.061Z,18.20
2018-11-04T01:51:47.584Z,19.27
2018-11-04T01:54:15.967Z,19.20
2018-11-04T01:56:44.348Z,18.53
2018-11-04T01:59:12.849Z,18.87
2018-11-04T02:01:41.243Z,18.90
2018-11-04T02:04:09.675Z,18.20
2018-11-04T02:06:38.185Z,18.30
2018-11-04T02:09:09.061Z,18.37
2018-11-04T02:11:37.636Z,18.50
2018-11-04T02:14:06.182Z,18.97
2018-11-04T02:16:34.875Z,19.40
2018-11-04T02:19:03.169Z,19.90
2018-11-04T02:21:31.507Z,18.63
2018-11-04T02:23:59.904Z,18.83
2018-11-04T02:26:28.320Z,19.43
2018-11-04T02:28:56.793Z,18.97
2018-11-04T02:31:25.219Z,20.30
2018-11-04T02:33:53.581Z,18.63
2018-11-04T02:36:22.120Z,18.70
2018-11-04T02:38:50.824Z,20.20
2018-11-04T02:41:19.186Z,20.00
2018-11-04T02:43:47.664Z,20.17
2018-11-04T02:46:16.016Z,18.57
2018-11-04T02:48:44.389Z,20.50
2018-11-04T02:51:12.880Z,21.20
2018-11-04T02:53:41.283Z,21.17
2018-11-04T02:56:09.700Z,21.43
2018-11-04T02:58:38.103Z,20.70
2018-11-04T03:01:06.538Z,21.43
2018-11-04T03:03:35.011Z,21.20
2018-11-04T03:06:03.415Z,19.60
2018-11-04T03:08:31.845Z,22.20
2018-11-04T03:11:00.257Z,21.17
2018-11-04T03:13:28.640Z,21.90
2018-11-04T03:15:56.925Z,21.70
2018-11-04T03:18:25.368Z,22.33
2018-11-04T03:20:53.812Z,24.93
2018-11-04T03:23:22.152Z,22.83
2018-11-04T03:25:50.554Z,22.77
2018-11-04T03:28:18.936Z,23.20
2018-11-04T03:30:47.477Z,22.80
2018-11-04T03:33:16.507Z,23.20
2018-11-04T03:35:44.890Z,23.47
2018-11-04T03:38:13.240Z,23.73
2018-11-04T03:40:41.634Z,22.50
2018-11-04T03:43:09.981Z,23.77
2018-11-04T03:45:38.380Z,22.63
2018-11-04T03:48:06.759Z,23.80
2018-11-04T03:50:35.139Z,23.70
2018-11-04T03:53:06.087Z,22.80
2018-11-04T03:55:35.200Z,25.00
2018-11-04T03:58:03.786Z,24.30
2018-11-04T04:00:32.130Z,23.27
2018-11-04T04:03:00.495Z,23.77
2018-11-04T04:05:28.938Z,23.23
2018-11-04T04:07:57.615Z,24.00
2018-11-04T04:10:25.969Z,24.00
2018-11-04T04:12:54.294Z,23.23
2018-11-04T04:15:22.692Z,23.70
2018-11-04T04:17:51.125Z,23.10
2018-11-04T04:20:19.513Z,22.50
2018-11-04T04:22:47.824Z,23.90
2018-11-04T04:25:16.232Z,25.63
2018-11-04T04:27:44.587Z,24.73
2018-11-04T04:30:12.884Z,23.23
2018-11-04T04:32:41.268Z,24.53
2018-11-04T04:35:10.359Z,25.57
2018-11-04T04:37:38.723Z,24.73
2018-11-04T04:40:07.060Z,24.63
2018-11-04T04:42:35.380Z,24.40
2018-11-04T04:45:03.741Z,26.50
2018-11-04T04:47:32.177Z,26.87
2018-11-04T04:50:00.547Z,27.00
2018-11-04T04:52:28.955Z,24.20
2018-11-04T04:54:57.304Z,25.40
2018-11-04T04:57:25.687Z,24.60
2018-11-04T04:59:54.131Z,25.80
2018-11-04T05:02:22.614Z,25.30
2018-11-04T05:04:51.095Z,25.30
2018-11-04T05:07:19.582Z,25.20
2018-11-04T05:09:47.976Z,24.97
2018-11-04T05:12:16.333Z,26.10
2018-11-04T05:14:44.734Z,26.17
2018-11-04T05:17:13.214Z,26.30
2018-11-04T05:19:41.595Z,25.90
2018-11-04T05:22:09.945Z,25.40
2018-11-04T05:24:38.232Z,25.00
2018-11-04T05:27:06.737Z,24.67
2018-11-04T05:29:35.112Z,27.17
2018-11-04T05:32:03.493Z,25.27
2018-11-04T05:34:31.806Z,26.03
2018-11-04T05:37:00.276Z,26.20
2018-11-04T05:39:28.632Z,27.07
2018-11-04T05:41:57.121Z,24.50
2018-11-04T05:44:25.528Z,24.57
2018-11-04T05:46:53.925Z,25.83
2018-11-04T05:49:22.318Z,26.10
2018-11-04T05:51:50.667Z,27.13
2018-11-04T05:54:19.039Z,25.70
2018-11-04T05:56:47.446Z,27.97
2018-11-04T05:59:15.799Z,26.67
2018-11-04T06:01:44.176Z,27.07
2018-11-04T06:04:14.754Z,25.90
2018-11-04T06:06:43.045Z,27.80
2018-11-04T06:09:11.516Z,26.37
2018-11-04T06:11:40.135Z,26.57
2018-11-04T06:14:08.611Z,26.23
2018-11-04T06:16:36.995Z,26.43
2018-11-04T06:19:05.527Z,26.53
2018-11-04T06:21:34.009Z,25.50
2018-11-04T06:24:02.495Z,27.27
2018-11-04T06:26:31.006Z,25.90
2018-11-04T06:28:59.564Z,26.13
2018-11-04T06:31:28.037Z,26.30
2018-11-04T06:33:56.408Z,27.20
2018-11-04T06:36:24.897Z,27.70
2018-11-04T06:38:53.319Z,26.80
2018-11-04T06:41:21.665Z,27.37
2018-11-04T06:43:50.028Z,27.70
2018-11-04T06:46:18.316Z,27.20
2018-11-04T06:48:46.748Z,28.20
2018-11-04T06:51:18.085Z,27.83
2018-11-04T06:53:46.411Z,28.30
2018-11-04T06:56:14.807Z,27.20
2018-11-04T06:58:43.242Z,28.10
2018-11-04T07:01:11.564Z,27.00
2018-11-04T07:03:49.843Z,27.40
2018-11-04T07:06:18.236Z,28.80
2018-11-04T07:08:46.603Z,28.53
2018-11-04T07:11:14.915Z,28.13
2018-11-04T07:13:43.363Z,27.50
2018-11-04T07:16:11.727Z,29.43
2018-11-04T07:18:40.510Z,29.10
2018-11-04T07:21:08.909Z,29.00
2018-11-04T07:23:37.291Z,28.70
2018-11-04T07:26:05.837Z,26.90
2018-11-04T07:28:34.259Z,29.53
2018-11-04T07:31:02.651Z,27.37
2018-11-04T07:33:31.063Z,28.47
2018-11-04T07:35:59.436Z,27.97
2018-11-04T07:38:27.812Z,27.23
2018-11-04T07:40:56.138Z,28.80
2018-11-04T07:43:24.464Z,27.77
2018-11-04T07:45:52.947Z,28.23
2018-11-04T07:48:21.277Z,28.20
2018-11-04T07:50:50.476Z,29.77
2018-11-04T07:53:18.784Z,28.00
2018-11-04T07:55:47.130Z,29.60
2018-11-04T07:58:15.567Z,30.40
2018-11-04T08:00:43.940Z,29.50
2018-11-04T08:03:12.383Z,30.03
2018-11-04T08:05:40.760Z,28.47
2018-11-04T08:08:09.303Z,29.83
2018-11-04T08:10:37.613Z,29.77
2018-11-04T08:13:06.257Z,29.10
2018-11-04T08:15:34.728Z,30.57
2018-11-04T08:18:03.052Z,29.70
2018-11-04T08:20:31.429Z,30.43
2018-11-04T08:22:59.825Z,29.63
2018-11-04T08:25:28.135Z,28.73
2018-11-04T08:27:56.584Z,30.60
2018-11-04T08:30:24.961Z,29.67
2018-11-04T08:32:53.325Z,29.83
2018-11-04T08:35:21.655Z,29.17
2018-11-04T08:37:49.956Z,30.40
2018-11-04T08:40:18.424Z,30.17
2018-11-04T08:42:47.710Z,31.00
2018-11-04T08:45:16.107Z,29.63
2018-11-04T08:47:44.440Z,30.30
2018-11-04T08:50:12.879Z,28.97
2018-11-04T08:52:41.310Z,31.23
2018-11-04T08:55:10.736Z,29.13
2018-11-04T08:57:39.103Z,30.30
2018-11-04T09:00:09.693Z,31.70
2018-11-04T09:02:38.121Z,30.33
2018-11-04T09:05:06.862Z,30.20
2018-11-04T09:07:35.208Z,32.17
2018-11-04T09:10:03.795Z,33.40
2018-11-04T09:12:32.268Z,29.47
2018-11-04T09:15:00.645Z,30.30
2018-11-04T09:17:28.976Z,29.87
2018-11-04T09:20:00.249Z,30.63
2018-11-04T09:22:28.700Z,31.17
2018-11-04T09:24:57.024Z,29.47
2018-11-04T09:27:25.451Z,28.37
2018-11-04T09:29:53.850Z,28.80
2018-11-04T09:32:22.232Z,30.30
2018-11-04T09:34:50.806Z,28.77
2018-11-04T09:37:19.173Z,29.77
2018-11-04T09:39:47.543Z,29.23
2018-11-04T09:42:16.078Z,29.30
2018-11-04T09:44:44.377Z,28.33
2018-11-04T09:47:12.973Z,28.83
2018-11-04T09:49:41.424Z,28.07
2018-11-04T09:52:09.843Z,29.33
2018-11-04T09:54:38.273Z,28.73
2018-11-04T09:57:06.607Z,27.77
2018-11-04T09:59:34.979Z,26.50
2018-11-04T10:02:03.467Z,27.00
2018-11-04T10:04:31.911Z,28.27
2018-11-04T10:07:00.321Z,28.60
2018-11-04T10:09:28.641Z,27.40
2018-11-04T10:11:56.981Z,28.00
2018-11-04T10:14:25.303Z,29.30
2018-11-04T10:16:53.755Z,25.80
2018-11-04T10:19:22.607Z,28.23
2018-11-04T10:21:50.766Z,28.87
2018-11-04T10:24:19.163Z,28.60
2018-11-04T10:26:47.626Z,28.47
2018-11-04T10:29:16.075Z,29.70
2018-11-04T10:31:44.495Z,29.10
2018-11-04T10:34:12.929Z,27.87
2018-11-04T10:36:41.223Z,28.43
2018-11-04T10:39:10.988Z,27.30
2018-11-04T10:41:39.310Z,28.20
2018-11-04T10:44:07.690Z,28.07
2018-11-04T10:46:36.019Z,25.70
2018-11-04T10:49:04.558Z,27.67
2018-11-04T10:51:33.012Z,26.70
2018-11-04T10:54:01.476Z,26.60
2018-11-04T10:56:29.913Z,27.20
2018-11-04T10:58:58.232Z,25.47
2018-11-04T11:01:26.696Z,25.67
2018-11-04T11:03:55.109Z,25.10
2018-11-04T11:06:23.509Z,28.00
2018-11-04T11:08:52.022Z,26.97
2018-11-04T11:11:20.327Z,25.80
2018-11-04T11:13:48.725Z,25.63
2018-11-04T11:16:17.132Z,24.27
2018-11-04T11:18:45.549Z,27.90
2018-11-04T11:21:13.998Z,23.30
2018-11-04T11:23:42.382Z,24.10
2018-11-04T11:26:10.707Z,23.10
2018-11-04T11:28:39.060Z,24.40
2018-11-04T11:31:07.469Z,25.03
2018-11-04T11:33:35.852Z,25.47
2018-11-04T11:36:04.236Z,25.27
2018-11-04T11:38:33.226Z,22.63
2018-11-04T11:41:01.648Z,22.97
2018-11-04T11:43:29.990Z,24.40
2018-11-04T11:45:58.364Z,22.77
2018-11-04T11:48:26.820Z,21.90
2018-11-04T11:50:55.218Z,23.53
2018-11-04T11:53:24.068Z,23.07
2018-11-04T11:55:52.750Z,23.50
2018-11-04T11:58:21.214Z,22.37
2018-11-04T12:00:49.619Z,24.97
2018-11-04T12:03:17.908Z,23.53
2018-11-04T12:05:46.253Z,22.17
2018-11-04T12:08:14.648Z,22.10
2018-11-04T12:10:42.954Z,23.20
2018-11-04T12:13:11.271Z,23.87
2018-11-04T12:15:39.569Z,23.00
2018-11-04T12:18:07.880Z,23.00
2018-11-04T12:20:36.160Z,20.20
2018-11-04T12:23:04.528Z,23.27
2018-11-04T12:25:32.836Z,21.43
2018-11-04T12:28:01.176Z,21.10
2018-11-04T12:30:29.527Z,20.47
2018-11-04T12:32:57.823Z,20.20
2018-11-04T12:35:26.390Z,17.67
2018-11-04T12:37:54.655Z,18.10
2018-11-04T12:40:23.145Z,18.50
2018-11-04T12:42:51.465Z,19.30
2018-11-04T12:45:19.815Z,18.10
2018-11-04T12:47:48.575Z,17.30
2018-11-04T12:50:17.101Z,18.17
2018-11-04T12:52:45.480Z,16.67
2018-11-04T12:55:13.833Z,16.10
2018-11-04T12:57:42.225Z,15.43
2018-11-04T13:00:14.024Z,15.40
2018-11-04T13:02:42.833Z,15.03
2018-11-04T13:05:11.543Z,14.53
2018-11-04T13:07:40.008Z,14.80
2018-11-04T13:10:10.352Z,14.17
2018-11-04T13:12:38.944Z,14.70
2018-11-04T13:15:08.718Z,15.33
2018-11-04T13:17:37.044Z,15.70
2018-11-04T13:20:05.682Z,14.30
2018-11-04T13:22:36.944Z,13.20
2018-11-04T13:25:05.840Z,14.87
2018-11-04T13:27:34.254Z,13.93
2018-11-04T13:30:02.650Z,13.77
2018-11-04T13:32:31.474Z,14.90
2018-11-04T13:34:59.810Z,13.67
2018-11-04T13:37:28.161Z,15.67
2018-11-04T13:39:56.553Z,14.57
2018-11-04T13:42:24.949Z,14.40
2018-11-04T13:44:53.407Z,14.67
2018-11-04T13:47:21.726Z,14.53
2018-11-04T13:49:50.172Z,13.63
2018-11-04T13:52:18.564Z,13.60
2018-11-04T13:54:46.958Z,14.03
2018-11-04T13:57:15.408Z,13.50
2018-11-04T13:59:43.795Z,13.50
2018-11-04T14:02:12.172Z,13.47
2018-11-04T14:04:40.533Z,16.07
2018-11-04T14:07:08.911Z,13.13
2018-11-04T14:09:37.257Z,13.33
2018-11-04T14:12:05.887Z,12.87
2018-11-04T14:14:34.283Z,13.00
2018-11-04T14:17:02.624Z,12.93
2018-11-04T14:19:30.978Z,13.50
2018-11-04T14:21:59.337Z,12.90
2018-11-04T14:24:27.663Z,12.53
2018-11-04T14:26:56.271Z,12.07
2018-11-04T14:29:24.612Z,12.03
2018-11-04T14:31:52.972Z,12.87
2018-11-04T14:34:21.327Z,12.90
2018-11-04T14:36:49.687Z,14.47
2018-11-04T14:39:18.040Z,13.03
2018-11-04T14:41:46.466Z,12.10
2018-11-04T14:44:14.836Z,12.40
2018-11-04T14:46:43.179Z,12.00
2018-11-04T14:49:11.542Z,12.47
2018-11-04T14:51:40.387Z,12.80
2018-11-04T14:54:10.046Z,14.30
2018-11-04T14:56:38.476Z,12.37
2018-11-04T14:59:07.655Z,12.90
2018-11-04T15:01:36.013Z,12.60
2018-11-04T15:04:04.429Z,11.70
2018-11-04T15:06:32.859Z,12.70
2018-11-04T15:09:01.299Z,13.50
2018-11-04T15:11:29.631Z,14.40
2018-11-04T15:13:58.117Z,14.00
2018-11-04T15:16:26.503Z,11.87
2018-11-04T15:18:54.984Z,12.97
2018-11-04T15:21:23.372Z,12.60
2018-11-04T15:23:51.712Z,11.50
2018-11-04T15:26:20.197Z,13.10
2018-11-04T15:28:48.569Z,12.13
2018-11-04T15:31:16.948Z,12.70
2018-11-04T15:33:45.293Z,12.40
2018-11-04T15:36:13.617Z,11.70
2018-11-04T15:38:41.975Z,11.77
2018-11-04T15:41:10.357Z,13.10
2018-11-04T15:43:38.746Z,12.53
2018-11-04T15:46:07.172Z,12.47
2018-11-04T15:48:35.490Z,12.47
2018-11-04T15:51:03.832Z,11.73
2018-11-04T15:53:32.250Z,11.97
2018-11-04T15:56:00.608Z,12.10
2018-11-04T15:58:28.956Z,13.10
2018-11-04T16:00:57.411Z,12.63
2018-11-04T16:03:25.826Z,11.27
2018-11-04T16:05:54.286Z,13.60
2018-11-04T16:08:22.581Z,12.80
2018-11-04T16:10:51.007Z,11.50
2018-11-04T16:13:19.429Z,11.40
2018-11-04T16:15:48.062Z,16.17
2018-11-04T16:18:16.658Z,13.13
2018-11-04T16:20:44.999Z,12.70
2018-11-04T16:23:13.412Z,12.97
2018-11-04T16:25:41.786Z,12.10
2018-11-04T16:28:10.196Z,11.40
2018-11-04T16:30:38.728Z,10.90
2018-11-04T16:33:07.163Z,10.30
2018-11-04T16:35:35.580Z,10.47
2018-11-04T16:38:04.039Z,10.30
2018-11-04T16:40:32.431Z,10.70
2018-11-04T16:43:00.780Z,9.20
2018-11-04T16:45:29.228Z,9.50
2018-11-04T16:47:57.652Z,9.27
2018-11-04T16:50:26.715Z,10.30
2018-11-04T16:52:55.142Z,9.03
2018-11-04T16:55:23.546Z,9.33
2018-11-04T16:57:52.068Z,9.03
2018-11-04T17:00:20.469Z,8.93
2018-11-04T17:02:48.840Z,8.43
2018-11-04T17:05:17.343Z,9.30
2018-11-04T17:07:45.672Z,7.90
2018-11-04T17:10:14.072Z,9.00
2018-11-04T17:12:42.499Z,8.97
2018-11-04T17:15:12.329Z,8.93
2018-11-04T17:17:40.767Z,11.40
2018-11-04T17:20:10.929Z,8.13
2018-11-04T17:22:40.593Z,21.10
2018-11-04T17:25:09.492Z,36.73
2018-11-04T17:27:37.876Z,18.37
2018-11-04T17:30:09.486Z,11.23
2018-11-04T17:32:37.938Z,9.57
2018-11-04T17:35:07.615Z,8.50
2018-11-04T17:37:35.908Z,13.57
2018-11-04T17:40:05.879Z,13.47
2018-11-04T17:42:34.306Z,10.80
2018-11-04T17:45:02.643Z,12.10
2018-11-04T17:47:31.172Z,19.40
2018-11-04T17:49:59.650Z,14.10
2018-11-04T17:52:27.995Z,11.50
2018-11-04T17:54:56.307Z,9.20
2018-11-04T17:57:24.708Z,9.10
2018-11-04T17:59:53.066Z,9.60
2018-11-04T18:02:21.460Z,10.03
2018-11-04T18:04:49.730Z,8.50
2018-11-04T18:07:18.102Z,10.63
2018-11-04T18:09:46.408Z,10.40
2018-11-04T18:12:14.770Z,11.90
2018-11-04T18:14:43.129Z,9.20
2018-11-04T18:17:11.524Z,9.10
2018-11-04T18:19:39.896Z,9.50
2018-11-04T18:22:08.281Z,9.70
2018-11-04T18:24:36.645Z,10.03
2018-11-04T18:27:05.040Z,10.30
2018-11-04T18:29:33.413Z,10.30
2018-11-04T18:32:01.751Z,10.30
2018-11-04T18:34:30.085Z,11.00
2018-11-04T18:36:58.448Z,9.80
2018-11-04T18:39:26.780Z,10.50
2018-11-04T18:41:55.119Z,11.60
2018-11-04T18:44:23.563Z,11.60
2018-11-04T18:46:51.907Z,12.30
2018-11-04T18:49:20.329Z,11.80
2018-11-04T18:51:48.710Z,12.37
2018-11-04T18:54:17.105Z,11.10
2018-11-04T18:56:45.397Z,13.70
2018-11-04T18:59:14.430Z,13.37
2018-11-04T19:01:42.809Z,11.83
2018-11-04T19:04:11.198Z,12.60
2018-11-04T19:06:39.536Z,13.47
2018-11-04T19:09:09.071Z,34.80
2018-11-04T19:11:37.587Z,13.93
2018-11-04T19:14:06.451Z,14.00
2018-11-04T19:16:34.969Z,11.37
2018-11-04T19:19:04.877Z,12.13
2018-11-04T19:21:33.349Z,13.20
2018-11-04T19:24:12.963Z,12.60
2018-11-04T19:26:57.613Z,11.33
2018-11-04T19:29:26.420Z,12.27
2018-11-04T19:31:54.908Z,13.17
2018-11-04T19:34:23.260Z,12.73
2018-11-04T19:36:51.738Z,11.93
2018-11-04T19:39:20.093Z,12.77
2018-11-04T19:41:48.603Z,13.37
2018-11-04T19:44:16.893Z,12.67
2018-11-04T19:46:45.256Z,13.00
2018-11-04T19:49:13.688Z,13.70
2018-11-04T19:51:42.058Z,14.17
2018-11-04T19:54:10.547Z,12.87
2018-11-04T19:56:38.950Z,13.73
2018-11-04T19:59:07.260Z,14.00
2018-11-04T20:01:35.593Z,14.43
2018-11-04T20:04:04.080Z,14.57
2018-11-04T20:06:32.430Z,14.03
2018-11-04T20:09:06.190Z,13.93
2018-11-04T20:11:34.524Z,14.90
2018-11-04T20:14:08.052Z,14.93
2018-11-04T20:16:36.425Z,15.67
2018-11-04T20:19:10.566Z,14.30
2018-11-04T20:21:38.824Z,13.37
2018-11-04T20:24:12.548Z,14.30
2018-11-04T20:26:40.932Z,13.63
2018-11-04T20:29:09.457Z,13.47
2018-11-04T20:31:43.088Z,13.70
2018-11-04T20:34:11.441Z,14.07
2018-11-04T20:36:39.723Z,13.73
2018-11-04T20:39:14.012Z,13.73
2018-11-04T20:41:42.904Z,13.60
2018-11-04T20:44:11.257Z,14.97
2018-11-04T20:46:40.225Z,13.23
2018-11-04T20:49:13.730Z,13.57
2018-11-04T20:51:42.189Z,12.47
2018-11-04T20:54:10.420Z,12.63
2018-11-04T20:56:44.200Z,12.93
2018-11-04T20:59:13.109Z,11.93
2018-11-04T21:01:41.456Z,11.97
2018-11-04T21:04:09.834Z,12.23
2018-11-04T21:06:38.213Z,12.50
2018-11-04T21:09:09.077Z,12.90
2018-11-04T21:11:37.505Z,12.00
2018-11-04T21:14:05.944Z,11.93
2018-11-04T21:16:34.931Z,12.33
2018-11-04T21:19:03.228Z,11.90
2018-11-04T21:21:32.273Z,11.47
2018-11-04T21:24:00.649Z,11.40
2018-11-04T21:26:29.049Z,12.00
2018-11-04T21:28:57.609Z,10.90
2018-11-04T21:31:25.853Z,11.30
2018-11-04T21:33:54.297Z,11.50
2018-11-04T21:36:23.810Z,11.03
2018-11-04T21:38:52.119Z,11.20
2018-11-04T21:41:20.546Z,10.90
2018-11-04T21:43:49.297Z,10.10
2018-11-04T21:46:17.364Z,10.30
2018-11-04T21:48:46.233Z,10.23
2018-11-04T21:51:15.073Z,11.63
2018-11-04T21:53:43.502Z,9.83
2018-11-04T21:56:12.106Z,11.10
2018-11-04T21:58:40.334Z,10.50
2018-11-04T22:01:08.688Z,11.73
2018-11-04T22:03:37.180Z,11.87
2018-11-04T22:06:05.491Z,12.10
2018-11-04T22:08:33.890Z,12.47
2018-11-04T22:11:02.231Z,11.30
2018-11-04T22:13:30.637Z,11.87
2018-11-04T22:15:58.939Z,17.67
2018-11-04T22:18:27.293Z,14.13
2018-11-04T22:20:55.722Z,12.57
2018-11-04T22:23:24.216Z,12.90
2018-11-04T22:25:52.575Z,12.17
2018-11-04T22:28:20.978Z,12.03
2018-11-04T22:30:49.390Z,12.03
2018-11-04T22:33:17.706Z,12.30
2018-11-04T22:35:46.039Z,13.07
2018-11-04T22:38:14.395Z,12.17
2018-11-04T22:40:42.700Z,12.60
2018-11-04T22:43:11.011Z,12.37
2018-11-04T22:45:39.472Z,11.83
2018-11-04T22:48:08.008Z,12.63
2018-11-04T22:50:36.382Z,11.77
2018-11-04T22:53:04.876Z,11.87
2018-11-04T22:55:33.181Z,13.87
2018-11-04T22:58:08.639Z,12.60
2018-11-04T23:00:44.235Z,12.40
2018-11-04T23:03:12.921Z,11.30
2018-11-04T23:05:41.333Z,11.20
2018-11-04T23:08:10.414Z,11.83
2018-11-04T23:10:38.829Z,12.00
2018-11-04T23:13:07.192Z,11.93
2018-11-04T23:15:35.561Z,10.30
2018-11-04T23:18:03.901Z,11.27
2018-11-04T23:20:33.064Z,11.50
2018-11-04T23:23:01.491Z,10.80
2018-11-04T23:25:29.802Z,10.40
2018-11-04T23:27:58.102Z,9.90
2018-11-04T23:30:26.475Z,11.17
2018-11-04T23:32:55.819Z,11.17
2018-11-04T23:35:24.124Z,10.87
2018-11-04T23:37:52.443Z,9.90
2018-11-04T23:40:20.791Z,11.27
2018-11-04T23:42:49.083Z,11.30
2018-11-04T23:45:17.422Z,11.00
2018-11-04T23:47:45.724Z,36.57
2018-11-04T23:50:15.140Z,11.10
2018-11-04T23:52:44.371Z,10.87
2018-11-04T23:55:13.504Z,12.33
2018-11-04T23:57:41.839Z,10.87
